Flint, Michigan
Current Conditions -  °F | °C
As of 2:53 PM on Friday 31 Oct 2014 (Local Time) from KFNT Reporting Station
Light Rain Light Rain  
Wind Chill: 29°   Ceiling: 1300
Heat Index: 40°   Visibility: 6mi
Dew Point: 35°   Wind: 24mph
Humidity: 83%   Direction: 10°N
Pressure: 29.95"   Gusts: 35mph
Location:  43.01°N, 83.68°W
Report Text: KFNT 311853Z 01021G30KT 6SM -RA BKN013 OVC019 04/02 A2995 RMK AO2 PK WND 36032/1759 SLP148 P0005 T00440017
Loading
Personal Weather Stations






























Interactive Weather Map New forecast layout! Learn more

10-Day Weather Forecast

Advertisements
Track Severe Weather on mobile